Terminal Aerodrome Forecast
Issued by NWS Blacksburg, VA

Current Version | Previous Version | Text Only | Print | Product List | Glossary On
Versions: 1 2 3 4 5 6 7 8 9 10 11 12 13 14 15 16 17 18 19 20 21 22 23 24
000
FTUS41 KRNK 271120
TAFLYH
TAF
KLYH 271120Z 2712/2812 00000KT 4SM BR OVC004
     FM271400 22007KT P6SM BKN004
     FM271700 22008KT P6SM VCSH BKN060
     FM280000 20004KT P6SM BKN110
     FM280900 20005KT P6SM BKN015=

USA.gov is the U.S. government's official web portal to all federal, state and local government web resources and services.